sensor_id;sensor_type;location;lat;lon;timestamp;pressure;altitude;pressure_sealevel;temperature;humidity
13765;BME280;6953;48.810;9.204;2022-09-09T00:00:21;98364.34;;;16.13;100.00
13765;BME280;6953;48.810;9.204;2022-09-09T00:02:55;98382.13;;;16.22;100.00
13765;BME280;6953;48.810;9.204;2022-09-09T00:08:15;98300.91;;;15.69;100.00
13765;BME280;6953;48.810;9.204;2022-09-09T00:10:43;98317.25;;;15.74;100.00
13765;BME280;6953;48.810;9.204;2022-09-09T00:13:19;98389.09;;;16.23;100.00
13765;BME280;6953;48.810;9.204;2022-09-09T00:15:59;98308.81;;;15.80;100.00
13765;BME280;6953;48.810;9.204;2022-09-09T00:18:44;98379.47;;;16.22;100.00
13765;BME280;6953;48.810;9.204;2022-09-09T00:21:17;98385.50;;;16.24;100.00
13765;BME280;6953;48.810;9.204;2022-09-09T00:23:55;98348.13;;;16.06;100.00
13765;BME280;6953;48.810;9.204;2022-09-09T00:31:37;98387.50;;;16.53;100.00
13765;BME280;6953;48.810;9.204;2022-09-09T00:34:11;98368.44;;;16.70;100.00
13765;BME280;6953;48.810;9.204;2022-09-09T00:36:38;98373.56;;;16.82;99.59
13765;BME280;6953;48.810;9.204;2022-09-09T00:39:04;98376.56;;;16.89;98.93
13765;BME280;6953;48.810;9.204;2022-09-09T00:41:43;98382.38;;;17.03;98.06
13765;BME280;6953;48.810;9.204;2022-09-09T00:44:33;98312.97;;;16.89;96.83
13765;BME280;6953;48.810;9.204;2022-09-09T00:49:54;98363.84;;;17.44;95.61
13765;BME280;6953;48.810;9.204;2022-09-09T00:52:43;98380.81;;;17.53;94.67
13765;BME280;6953;48.810;9.204;2022-09-09T00:58:10;98355.94;;;17.54;93.89
13765;BME280;6953;48.810;9.204;2022-09-09T01:00:43;98379.78;;;17.74;93.79
13765;BME280;6953;48.810;9.204;2022-09-09T01:06:16;98378.41;;;17.79;92.91
13765;BME280;6953;48.810;9.204;2022-09-09T01:17:24;98375.38;;;17.54;93.80
13765;BME280;6953;48.810;9.204;2022-09-09T01:20:00;98370.19;;;17.53;93.57
13765;BME280;6953;48.810;9.204;2022-09-09T01:28:11;98371.94;;;17.63;92.52
13765;BME280;6953;48.810;9.204;2022-09-09T01:30:40;98333.91;;;17.33;92.20
13765;BME280;6953;48.810;9.204;2022-09-09T01:33:11;98394.28;;;17.70;92.31
13765;BME280;6953;48.810;9.204;2022-09-09T01:38:17;98346.13;;;17.45;91.51
13765;BME280;6953;48.810;9.204;2022-09-09T01:40:43;98372.84;;;17.53;91.73
13765;BME280;6953;48.810;9.204;2022-09-09T01:43:09;98403.47;;;17.66;92.02
13765;BME280;6953;48.810;9.204;2022-09-09T01:45:35;98394.69;;;17.66;92.24
13765;BME280;6953;48.810;9.204;2022-09-09T01:48:01;98386.16;;;17.62;92.53
13765;BME280;6953;48.810;9.204;2022-09-09T01:50:27;98397.16;;;17.58;92.95
13765;BME280;6953;48.810;9.204;2022-09-09T01:52:56;98372.13;;;17.51;92.84
13765;BME280;6953;48.810;9.204;2022-09-09T01:55:30;98386.38;;;17.50;92.82
13765;BME280;6953;48.810;9.204;2022-09-09T02:00:29;98395.41;;;17.47;93.05
13765;BME280;6953;48.810;9.204;2022-09-09T02:05:39;98277.41;;;16.71;93.79
13765;BME280;6953;48.810;9.204;2022-09-09T02:08:06;98375.19;;;17.15;94.65
13765;BME280;6953;48.810;9.204;2022-09-09T02:11:11;98374.31;;;17.05;95.79
13765;BME280;6953;48.810;9.204;2022-09-09T02:13:29;98368.53;;;16.79;96.81
13765;BME280;6953;48.810;9.204;2022-09-09T02:16:02;98389.59;;;16.81;97.35
13765;BME280;6953;48.810;9.204;2022-09-09T02:18:38;98393.78;;;16.83;97.01
13765;BME280;6953;48.810;9.204;2022-09-09T02:21:06;98389.97;;;16.76;97.30
13765;BME280;6953;48.810;9.204;2022-09-09T02:23:33;98389.97;;;16.76;97.19
13765;BME280;6953;48.810;9.204;2022-09-09T02:26:00;98392.97;;;16.72;97.33
13765;BME280;6953;48.810;9.204;2022-09-09T02:28:30;98386.28;;;16.68;98.02
13765;BME280;6953;48.810;9.204;2022-09-09T02:30:57;98385.66;;;16.65;98.06
13765;BME280;6953;48.810;9.204;2022-09-09T02:33:26;98372.00;;;16.49;98.24
13765;BME280;6953;48.810;9.204;2022-09-09T02:35:53;98345.34;;;16.19;99.27
13765;BME280;6953;48.810;9.204;2022-09-09T02:38:24;98374.56;;;16.28;99.85
13765;BME280;6953;48.810;9.204;2022-09-09T02:40:53;98277.47;;;15.64;100.00
13765;BME280;6953;48.810;9.204;2022-09-09T02:43:19;98323.84;;;15.90;100.00
13765;BME280;6953;48.810;9.204;2022-09-09T02:45:53;98258.59;;;15.47;100.00
13765;BME280;6953;48.810;9.204;2022-09-09T02:48:32;98288.75;;;15.56;100.00
13765;BME280;6953;48.810;9.204;2022-09-09T02:51:29;98265.34;;;15.40;100.00
13765;BME280;6953;48.810;9.204;2022-09-09T02:54:09;98381.31;;;15.99;100.00
13765;BME280;6953;48.810;9.204;2022-09-09T02:56:40;98371.72;;;15.87;100.00
13765;BME280;6953;48.810;9.204;2022-09-09T02:59:07;98379.19;;;15.82;100.00
13765;BME280;6953;48.810;9.204;2022-09-09T03:01:33;98318.34;;;15.39;100.00
13765;BME280;6953;48.810;9.204;2022-09-09T03:03:58;98377.00;;;15.65;100.00
13765;BME280;6953;48.810;9.204;2022-09-09T03:06:23;98270.81;;;15.04;100.00
13765;BME280;6953;48.810;9.204;2022-09-09T03:08:49;98372.09;;;15.72;100.00
13765;BME280;6953;48.810;9.204;2022-09-09T03:11:16;98311.63;;;15.46;100.00
13765;BME280;6953;48.810;9.204;2022-09-09T03:13:41;98359.78;;;16.04;100.00
13765;BME280;6953;48.810;9.204;2022-09-09T03:16:06;98364.47;;;16.11;100.00
13765;BME280;6953;48.810;9.204;2022-09-09T03:18:32;98370.47;;;16.24;100.00
13765;BME280;6953;48.810;9.204;2022-09-09T03:20:57;98354.72;;;16.34;100.00
13765;BME280;6953;48.810;9.204;2022-09-09T03:23:24;98269.34;;;15.99;99.22
13765;BME280;6953;48.810;9.204;2022-09-09T03:25:50;98269.81;;;16.04;98.57
13765;BME280;6953;48.810;9.204;2022-09-09T03:28:17;98370.88;;;16.62;97.95
13765;BME280;6953;48.810;9.204;2022-09-09T03:30:42;98366.22;;;16.55;97.94
13765;BME280;6953;48.810;9.204;2022-09-09T03:33:07;98362.94;;;16.62;96.81
13765;BME280;6953;48.810;9.204;2022-09-09T03:35:33;98356.41;;;16.66;96.93
13765;BME280;6953;48.810;9.204;2022-09-09T03:37:58;98349.69;;;16.62;96.85
13765;BME280;6953;48.810;9.204;2022-09-09T03:40:25;98365.66;;;16.71;96.54
13765;BME280;6953;48.810;9.204;2022-09-09T03:42:51;98367.50;;;16.71;96.11
13765;BME280;6953;48.810;9.204;2022-09-09T03:45:16;98374.34;;;16.63;96.11
13765;BME280;6953;48.810;9.204;2022-09-09T03:47:42;98285.06;;;16.11;96.40
13765;BME280;6953;48.810;9.204;2022-09-09T03:50:07;98377.47;;;16.67;96.49
13765;BME280;6953;48.810;9.204;2022-09-09T03:52:38;98383.50;;;16.69;96.67
13765;BME280;6953;48.810;9.204;2022-09-09T03:55:06;98370.75;;;16.64;97.00
13765;BME280;6953;48.810;9.204;2022-09-09T03:57:32;98315.47;;;16.28;97.15
13765;BME280;6953;48.810;9.204;2022-09-09T04:00:01;98377.19;;;16.50;97.57
13765;BME280;6953;48.810;9.204;2022-09-09T04:02:26;98258.94;;;15.75;98.37
13765;BME280;6953;48.810;9.204;2022-09-09T04:04:51;98379.38;;;16.34;98.54
13765;BME280;6953;48.810;9.204;2022-09-09T04:07:17;98313.53;;;15.87;99.30
13765;BME280;6953;48.810;9.204;2022-09-09T04:09:42;98380.94;;;16.26;99.65
13765;BME280;6953;48.810;9.204;2022-09-09T04:12:07;98375.63;;;16.26;99.90
13765;BME280;6953;48.810;9.204;2022-09-09T04:14:33;98372.75;;;16.29;100.00
13765;BME280;6953;48.810;9.204;2022-09-09T04:16:58;98379.84;;;16.28;100.00
13765;BME280;6953;48.810;9.204;2022-09-09T04:19:24;98379.72;;;16.30;100.00
13765;BME280;6953;48.810;9.204;2022-09-09T04:21:50;98383.31;;;16.29;100.00
13765;BME280;6953;48.810;9.204;2022-09-09T04:24:16;98389.97;;;16.34;100.00
13765;BME280;6953;48.810;9.204;2022-09-09T04:26:42;98334.28;;;16.03;99.51
13765;BME280;6953;48.810;9.204;2022-09-09T04:29:07;98397.53;;;16.50;98.93
13765;BME280;6953;48.810;9.204;2022-09-09T04:31:33;98384.03;;;16.53;98.33
13765;BME280;6953;48.810;9.204;2022-09-09T04:33:58;98395.19;;;16.67;97.34
13765;BME280;6953;48.810;9.204;2022-09-09T04:36:27;98353.06;;;16.53;96.77
13765;BME280;6953;48.810;9.204;2022-09-09T04:38:53;98395.94;;;16.89;95.56
13765;BME280;6953;48.810;9.204;2022-09-09T04:41:18;98361.81;;;16.75;94.90
13765;BME280;6953;48.810;9.204;2022-09-09T04:43:43;98420.00;;;16.97;94.59
13765;BME280;6953;48.810;9.204;2022-09-09T04:46:09;98404.22;;;16.96;94.23
13765;BME280;6953;48.810;9.204;2022-09-09T04:48:34;98404.59;;;16.91;94.54
13765;BME280;6953;48.810;9.204;2022-09-09T04:51:08;98273.50;;;16.12;94.39
13765;BME280;6953;48.810;9.204;2022-09-09T04:53:34;98397.06;;;16.76;95.06
13765;BME280;6953;48.810;9.204;2022-09-09T04:58:32;98300.88;;;15.91;95.40
13765;BME280;6953;48.810;9.204;2022-09-09T05:03:30;98237.59;;;15.46;97.27
13765;BME280;6953;48.810;9.204;2022-09-09T05:08:30;98363.53;;;16.01;98.21
13765;BME280;6953;48.810;9.204;2022-09-09T05:10:55;98405.25;;;16.20;99.25
13765;BME280;6953;48.810;9.204;2022-09-09T05:13:21;98365.19;;;15.91;99.25
13765;BME280;6953;48.810;9.204;2022-09-09T05:15:54;98414.50;;;16.25;99.27
13765;BME280;6953;48.810;9.204;2022-09-09T05:18:19;98420.66;;;16.37;99.29
13765;BME280;6953;48.810;9.204;2022-09-09T05:20:45;98410.38;;;16.54;98.32
13765;BME280;6953;48.810;9.204;2022-09-09T05:23:10;98357.94;;;16.48;97.15
13765;BME280;6953;48.810;9.204;2022-09-09T05:25:37;98395.22;;;16.87;96.18
13765;BME280;6953;48.810;9.204;2022-09-09T05:28:03;98415.44;;;17.20;95.37
13765;BME280;6953;48.810;9.204;2022-09-09T05:30:28;98413.25;;;17.25;94.75
13765;BME280;6953;48.810;9.204;2022-09-09T05:32:56;98398.66;;;17.30;93.99
13765;BME280;6953;48.810;9.204;2022-09-09T05:35:21;98427.72;;;17.52;93.39
13765;BME280;6953;48.810;9.204;2022-09-09T05:37:48;98388.13;;;17.40;92.60
13765;BME280;6953;48.810;9.204;2022-09-09T05:40:13;98429.25;;;17.75;91.79
13765;BME280;6953;48.810;9.204;2022-09-09T05:42:38;98424.44;;;17.89;90.03
13765;BME280;6953;48.810;9.204;2022-09-09T05:45:05;98421.41;;;18.03;89.08
13765;BME280;6953;48.810;9.204;2022-09-09T05:47:32;98423.31;;;18.22;88.10
13765;BME280;6953;48.810;9.204;2022-09-09T05:49:58;98424.09;;;18.33;87.00
13765;BME280;6953;48.810;9.204;2022-09-09T05:52:23;98415.16;;;18.34;86.41
13765;BME280;6953;48.810;9.204;2022-09-09T05:54:50;98417.84;;;18.44;85.91
13765;BME280;6953;48.810;9.204;2022-09-09T05:57:16;98359.13;;;18.07;85.62
13765;BME280;6953;48.810;9.204;2022-09-09T05:59:42;98445.56;;;18.60;85.23
13765;BME280;6953;48.810;9.204;2022-09-09T06:02:08;98417.72;;;18.64;84.81
13765;BME280;6953;48.810;9.204;2022-09-09T06:04:34;98422.81;;;18.86;83.67
13765;BME280;6953;48.810;9.204;2022-09-09T06:07:00;98441.44;;;19.05;82.95
13765;BME280;6953;48.810;9.204;2022-09-09T06:09:26;98293.09;;;18.33;82.43
13765;BME280;6953;48.810;9.204;2022-09-09T06:11:51;98437.28;;;19.31;81.87
13765;BME280;6953;48.810;9.204;2022-09-09T06:14:16;98365.84;;;18.98;81.35
13765;BME280;6953;48.810;9.204;2022-09-09T06:16:43;98410.78;;;19.39;80.85
13765;BME280;6953;48.810;9.204;2022-09-09T06:19:09;98432.19;;;19.66;80.48
13765;BME280;6953;48.810;9.204;2022-09-09T06:21:36;98431.88;;;19.78;79.64
13765;BME280;6953;48.810;9.204;2022-09-09T06:24:02;98437.34;;;19.86;79.06
13765;BME280;6953;48.810;9.204;2022-09-09T06:26:33;98442.47;;;19.97;79.03
13765;BME280;6953;48.810;9.204;2022-09-09T06:28:59;98441.66;;;20.06;78.51
13765;BME280;6953;48.810;9.204;2022-09-09T06:31:27;98450.13;;;20.19;77.98
13765;BME280;6953;48.810;9.204;2022-09-09T06:33:56;98447.72;;;20.25;77.67
13765;BME280;6953;48.810;9.204;2022-09-09T06:36:24;98420.38;;;20.23;77.56
13765;BME280;6953;48.810;9.204;2022-09-09T06:38:50;98424.91;;;20.40;77.35
13765;BME280;6953;48.810;9.204;2022-09-09T06:41:18;98434.50;;;20.60;76.70
13765;BME280;6953;48.810;9.204;2022-09-09T06:43:45;98437.66;;;20.73;76.19
13765;BME280;6953;48.810;9.204;2022-09-09T06:46:22;98365.00;;;20.44;75.66
13765;BME280;6953;48.810;9.204;2022-09-09T06:48:48;98416.13;;;20.84;74.94
13765;BME280;6953;48.810;9.204;2022-09-09T06:51:18;98445.03;;;21.06;74.22
13765;BME280;6953;48.810;9.204;2022-09-09T06:53:47;98384.81;;;20.86;73.90
13765;BME280;6953;48.810;9.204;2022-09-09T06:56:33;98338.84;;;20.75;73.02
13765;BME280;6953;48.810;9.204;2022-09-09T06:59:01;98348.47;;;20.85;72.73
13765;BME280;6953;48.810;9.204;2022-09-09T07:01:31;98449.69;;;21.56;72.61
13765;BME280;6953;48.810;9.204;2022-09-09T07:03:58;98444.88;;;21.77;72.04
13765;BME280;6953;48.810;9.204;2022-09-09T07:06:28;98420.78;;;21.69;70.98
13765;BME280;6953;48.810;9.204;2022-09-09T07:08:56;98446.34;;;21.97;70.12
13765;BME280;6953;48.810;9.204;2022-09-09T07:11:25;98389.94;;;21.57;69.88
13765;BME280;6953;48.810;9.204;2022-09-09T07:13:52;98349.88;;;21.32;69.48
13765;BME280;6953;48.810;9.204;2022-09-09T07:16:20;98443.66;;;21.97;69.33
13765;BME280;6953;48.810;9.204;2022-09-09T07:18:46;98381.16;;;21.65;69.07
13765;BME280;6953;48.810;9.204;2022-09-09T07:21:14;98357.03;;;21.74;68.30
13765;BME280;6953;48.810;9.204;2022-09-09T07:23:40;98409.25;;;22.27;67.28
13765;BME280;6953;48.810;9.204;2022-09-09T07:26:11;98443.22;;;22.68;66.42
13765;BME280;6953;48.810;9.204;2022-09-09T07:28:37;98355.03;;;22.43;65.66
13765;BME280;6953;48.810;9.204;2022-09-09T07:31:04;98355.13;;;22.75;64.58
13765;BME280;6953;48.810;9.204;2022-09-09T07:33:32;98446.91;;;23.40;64.03
13765;BME280;6953;48.810;9.204;2022-09-09T07:36:08;98445.44;;;23.86;62.60
13765;BME280;6953;48.810;9.204;2022-09-09T07:38:41;98462.75;;;24.45;60.74
13765;BME280;6953;48.810;9.204;2022-09-09T07:44:05;98433.25;;;26.18;54.58
13765;BME280;6953;48.810;9.204;2022-09-09T07:46:31;98403.97;;;27.44;50.25
13765;BME280;6953;48.810;9.204;2022-09-09T07:48:57;98433.31;;;28.83;45.65
13765;BME280;6953;48.810;9.204;2022-09-09T07:51:34;98429.50;;;28.71;45.34
13765;BME280;6953;48.810;9.204;2022-09-09T07:54:03;98449.53;;;28.50;45.94
13765;BME280;6953;48.810;9.204;2022-09-09T07:56:29;98451.03;;;28.65;45.16
13765;BME280;6953;48.810;9.204;2022-09-09T07:58:56;98436.03;;;28.96;43.77
13765;BME280;6953;48.810;9.204;2022-09-09T08:01:29;98457.06;;;30.71;38.78
13765;BME280;6953;48.810;9.204;2022-09-09T08:03:56;98447.31;;;32.79;34.92
13765;BME280;6953;48.810;9.204;2022-09-09T08:06:24;98450.06;;;34.60;31.66
13765;BME280;6953;48.810;9.204;2022-09-09T08:08:50;98449.53;;;35.21;29.65
13765;BME280;6953;48.810;9.204;2022-09-09T08:11:16;98462.13;;;34.99;29.64
13765;BME280;6953;48.810;9.204;2022-09-09T08:13:43;98474.38;;;35.91;28.55
13765;BME280;6953;48.810;9.204;2022-09-09T08:16:18;98412.31;;;36.20;26.83
13765;BME280;6953;48.810;9.204;2022-09-09T08:18:43;98468.88;;;37.06;26.82
13765;BME280;6953;48.810;9.204;2022-09-09T08:21:15;98465.88;;;37.98;24.50
13765;BME280;6953;48.810;9.204;2022-09-09T08:23:43;98459.97;;;38.43;24.13
13765;BME280;6953;48.810;9.204;2022-09-09T08:26:15;98428.13;;;38.78;23.58
13765;BME280;6953;48.810;9.204;2022-09-09T08:28:42;98453.75;;;38.98;23.15
13765;BME280;6953;48.810;9.204;2022-09-09T08:31:14;98479.59;;;38.61;22.95
13765;BME280;6953;48.810;9.204;2022-09-09T08:33:41;98485.94;;;38.04;23.69
13765;BME280;6953;48.810;9.204;2022-09-09T08:36:09;98475.22;;;37.76;23.56
13765;BME280;6953;48.810;9.204;2022-09-09T08:38:36;98390.31;;;36.85;23.21
13765;BME280;6953;48.810;9.204;2022-09-09T08:43:41;98442.00;;;37.46;23.51
13765;BME280;6953;48.810;9.204;2022-09-09T08:46:25;98479.19;;;38.16;22.47
13765;BME280;6953;48.810;9.204;2022-09-09T08:49:03;98402.59;;;38.05;21.91
13765;BME280;6953;48.810;9.204;2022-09-09T08:51:32;98463.56;;;39.31;21.59
13765;BME280;6953;48.810;9.204;2022-09-09T08:54:02;98438.03;;;39.50;21.17
13765;BME280;6953;48.810;9.204;2022-09-09T08:56:31;98419.38;;;39.42;20.44
13765;BME280;6953;48.810;9.204;2022-09-09T08:58:59;98472.72;;;39.56;20.46
13765;BME280;6953;48.810;9.204;2022-09-09T09:01:53;98476.25;;;39.47;20.50
13765;BME280;6953;48.810;9.204;2022-09-09T09:10:11;98486.38;;;39.36;19.65
13765;BME280;6953;48.810;9.204;2022-09-09T09:12:41;98481.50;;;37.98;20.63
13765;BME280;6953;48.810;9.204;2022-09-09T09:15:31;98410.09;;;34.66;24.20
13765;BME280;6953;48.810;9.204;2022-09-09T09:18:02;98457.28;;;32.67;26.90
13765;BME280;6953;48.810;9.204;2022-09-09T09:21:03;98455.38;;;30.70;31.57
13765;BME280;6953;48.810;9.204;2022-09-09T09:23:42;98448.56;;;29.70;33.51
13765;BME280;6953;48.810;9.204;2022-09-09T09:26:10;98460.88;;;29.19;34.91
13765;BME280;6953;48.810;9.204;2022-09-09T09:28:36;98456.88;;;27.86;38.22
13765;BME280;6953;48.810;9.204;2022-09-09T09:31:12;98454.88;;;26.25;43.76
13765;BME280;6953;48.810;9.204;2022-09-09T09:33:53;98396.88;;;25.04;46.50
13765;BME280;6953;48.810;9.204;2022-09-09T09:36:20;98171.59;;;23.28;47.62
13765;BME280;6953;48.810;9.204;2022-09-09T09:38:57;98475.09;;;24.70;49.24
13765;BME280;6953;48.810;9.204;2022-09-09T09:41:49;98474.84;;;24.41;50.94
13765;BME280;6953;48.810;9.204;2022-09-09T09:44:26;98480.06;;;24.35;50.04
13765;BME280;6953;48.810;9.204;2022-09-09T09:46:52;98455.84;;;24.59;49.27
13765;BME280;6953;48.810;9.204;2022-09-09T09:49:18;98456.63;;;25.36;45.82
13765;BME280;6953;48.810;9.204;2022-09-09T09:51:44;98454.63;;;28.38;37.92
13765;BME280;6953;48.810;9.204;2022-09-09T09:56:39;98441.41;;;34.40;25.42
13765;BME280;6953;48.810;9.204;2022-09-09T09:59:05;98432.47;;;36.14;21.96
13765;BME280;6953;48.810;9.204;2022-09-09T10:01:44;98471.47;;;37.82;20.49
13765;BME280;6953;48.810;9.204;2022-09-09T10:04:18;98457.09;;;38.28;19.75
13765;BME280;6953;48.810;9.204;2022-09-09T10:06:45;98473.59;;;39.10;18.57
13765;BME280;6953;48.810;9.204;2022-09-09T10:09:25;98472.41;;;39.48;18.41
13765;BME280;6953;48.810;9.204;2022-09-09T10:22:34;98447.66;;;41.27;17.89
13765;BME280;6953;48.810;9.204;2022-09-09T10:30:49;98455.59;;;43.15;16.37
13765;BME280;6953;48.810;9.204;2022-09-09T10:33:34;98442.53;;;42.69;16.91
13765;BME280;6953;48.810;9.204;2022-09-09T10:36:13;98404.72;;;42.07;16.82
13765;BME280;6953;48.810;9.204;2022-09-09T10:38:45;98469.50;;;42.15;17.11
13765;BME280;6953;48.810;9.204;2022-09-09T10:47:07;98406.03;;;38.22;21.65
13765;BME280;6953;48.810;9.204;2022-09-09T10:55:19;98398.41;;;32.55;30.03
13765;BME280;6953;48.810;9.204;2022-09-09T10:57:47;98386.69;;;34.30;27.76
13765;BME280;6953;48.810;9.204;2022-09-09T11:00:20;98355.97;;;34.35;27.42
13765;BME280;6953;48.810;9.204;2022-09-09T11:02:54;98296.47;;;34.32;26.73
13765;BME280;6953;48.810;9.204;2022-09-09T11:08:10;98401.97;;;37.66;23.04
13765;BME280;6953;48.810;9.204;2022-09-09T11:10:46;98416.50;;;38.25;21.97
13765;BME280;6953;48.810;9.204;2022-09-09T11:13:28;98409.06;;;35.90;24.83
13765;BME280;6953;48.810;9.204;2022-09-09T11:16:05;98417.31;;;33.21;27.94
13765;BME280;6953;48.810;9.204;2022-09-09T11:18:39;98424.19;;;31.48;29.59
13765;BME280;6953;48.810;9.204;2022-09-09T11:21:18;98397.34;;;29.56;32.33
13765;BME280;6953;48.810;9.204;2022-09-09T11:23:55;98407.25;;;28.08;35.25
13765;BME280;6953;48.810;9.204;2022-09-09T11:26:33;98425.81;;;27.28;37.84
13765;BME280;6953;48.810;9.204;2022-09-09T11:31:58;98446.13;;;25.71;42.41
13765;BME280;6953;48.810;9.204;2022-09-09T11:34:50;98435.91;;;25.44;43.98
13765;BME280;6953;48.810;9.204;2022-09-09T11:37:29;98360.91;;;25.13;43.82
13765;BME280;6953;48.810;9.204;2022-09-09T11:40:21;98381.25;;;25.52;42.69
13765;BME280;6953;48.810;9.204;2022-09-09T11:42:48;98453.16;;;25.72;43.09
13765;BME280;6953;48.810;9.204;2022-09-09T11:45:24;98327.56;;;25.30;42.74
13765;BME280;6953;48.810;9.204;2022-09-09T11:47:52;98448.72;;;26.02;42.42
13765;BME280;6953;48.810;9.204;2022-09-09T11:52:45;98312.94;;;25.10;43.15
13765;BME280;6953;48.810;9.204;2022-09-09T11:55:32;98440.25;;;25.90;43.11
13765;BME280;6953;48.810;9.204;2022-09-09T11:58:14;98350.41;;;25.62;42.69
13765;BME280;6953;48.810;9.204;2022-09-09T12:06:33;98433.50;;;26.95;39.53
13765;BME280;6953;48.810;9.204;2022-09-09T12:09:11;98437.13;;;28.68;34.68
13765;BME280;6953;48.810;9.204;2022-09-09T12:11:41;98450.75;;;31.77;28.89
13765;BME280;6953;48.810;9.204;2022-09-09T12:14:22;98414.50;;;33.10;26.45
13765;BME280;6953;48.810;9.204;2022-09-09T12:16:49;98379.78;;;34.39;24.18
13765;BME280;6953;48.810;9.204;2022-09-09T12:19:20;98459.72;;;36.96;21.90
13765;BME280;6953;48.810;9.204;2022-09-09T12:24:52;98476.16;;;39.27;18.54
13765;BME280;6953;48.810;9.204;2022-09-09T12:27:57;98487.91;;;41.13;17.15
13765;BME280;6953;48.810;9.204;2022-09-09T12:30:56;98384.00;;;40.25;16.88
13765;BME280;6953;48.810;9.204;2022-09-09T12:33:19;98477.59;;;38.88;18.51
13765;BME280;6953;48.810;9.204;2022-09-09T12:35:53;98476.09;;;39.78;17.48
13765;BME280;6953;48.810;9.204;2022-09-09T12:38:29;98403.81;;;40.02;16.92
13765;BME280;6953;48.810;9.204;2022-09-09T12:40:57;98468.72;;;40.23;16.55
13765;BME280;6953;48.810;9.204;2022-09-09T12:43:26;98480.84;;;39.31;16.95
13765;BME280;6953;48.810;9.204;2022-09-09T12:45:55;98390.75;;;35.74;19.74
13765;BME280;6953;48.810;9.204;2022-09-09T12:48:31;98450.97;;;34.09;22.05
13765;BME280;6953;48.810;9.204;2022-09-09T12:50:58;98429.53;;;32.59;23.76
13765;BME280;6953;48.810;9.204;2022-09-09T12:53:31;98341.16;;;30.73;25.68
13765;BME280;6953;48.810;9.204;2022-09-09T12:56:04;98402.63;;;31.29;26.82
13765;BME280;6953;48.810;9.204;2022-09-09T12:58:32;98406.88;;;33.89;24.13
13765;BME280;6953;48.810;9.204;2022-09-09T13:00:59;98411.78;;;36.39;20.87
13765;BME280;6953;48.810;9.204;2022-09-09T13:03:26;98346.91;;;37.99;18.81
13765;BME280;6953;48.810;9.204;2022-09-09T13:05:52;98415.97;;;37.96;18.89
13765;BME280;6953;48.810;9.204;2022-09-09T13:08:19;98414.13;;;38.07;18.91
13765;BME280;6953;48.810;9.204;2022-09-09T13:11:00;98359.94;;;37.82;18.33
13765;BME280;6953;48.810;9.204;2022-09-09T13:13:39;98426.28;;;39.55;17.46
13765;BME280;6953;48.810;9.204;2022-09-09T13:16:20;98366.97;;;39.98;16.28
13765;BME280;6953;48.810;9.204;2022-09-09T13:18:46;98429.03;;;39.65;17.12
13765;BME280;6953;48.810;9.204;2022-09-09T13:21:11;98410.00;;;37.47;19.26
13765;BME280;6953;48.810;9.204;2022-09-09T13:23:37;98369.25;;;35.49;21.10
13765;BME280;6953;48.810;9.204;2022-09-09T13:28:47;98383.03;;;32.67;25.57
13765;BME280;6953;48.810;9.204;2022-09-09T13:31:28;98370.03;;;32.33;26.31
13765;BME280;6953;48.810;9.204;2022-09-09T13:33:54;98359.84;;;32.46;26.82
13765;BME280;6953;48.810;9.204;2022-09-09T13:36:33;98367.81;;;33.13;25.08
13765;BME280;6953;48.810;9.204;2022-09-09T13:39:00;98367.31;;;34.66;23.32
13765;BME280;6953;48.810;9.204;2022-09-09T13:41:33;98373.41;;;36.13;21.38
13765;BME280;6953;48.810;9.204;2022-09-09T13:44:00;98305.06;;;36.50;20.92
13765;BME280;6953;48.810;9.204;2022-09-09T13:46:35;98327.47;;;35.32;22.12
13765;BME280;6953;48.810;9.204;2022-09-09T13:49:22;98363.66;;;32.63;25.52
13765;BME280;6953;48.810;9.204;2022-09-09T13:51:49;98310.91;;;30.12;28.87
13765;BME280;6953;48.810;9.204;2022-09-09T13:54:17;98293.00;;;28.82;31.51
13765;BME280;6953;48.810;9.204;2022-09-09T13:56:44;98336.50;;;28.47;32.52
13765;BME280;6953;48.810;9.204;2022-09-09T13:59:15;98333.63;;;28.14;32.52
13765;BME280;6953;48.810;9.204;2022-09-09T14:01:41;98311.63;;;27.83;32.85
13765;BME280;6953;48.810;9.204;2022-09-09T14:04:07;98323.25;;;28.18;32.75
13765;BME280;6953;48.810;9.204;2022-09-09T14:06:34;98294.41;;;28.18;33.59
13765;BME280;6953;48.810;9.204;2022-09-09T14:09:03;98332.31;;;28.44;33.30
13765;BME280;6953;48.810;9.204;2022-09-09T14:11:29;98348.09;;;28.07;33.67
13765;BME280;6953;48.810;9.204;2022-09-09T14:13:54;98262.72;;;27.11;34.27
13765;BME280;6953;48.810;9.204;2022-09-09T14:16:21;98337.09;;;27.26;34.43
13765;BME280;6953;48.810;9.204;2022-09-09T14:18:47;98352.22;;;27.27;34.01
13765;BME280;6953;48.810;9.204;2022-09-09T14:21:12;98344.78;;;27.08;34.67
13765;BME280;6953;48.810;9.204;2022-09-09T14:23:38;98331.66;;;26.84;34.54
13765;BME280;6953;48.810;9.204;2022-09-09T14:26:05;98265.25;;;26.06;34.92
13765;BME280;6953;48.810;9.204;2022-09-09T14:28:31;98270.41;;;25.87;35.45
13765;BME280;6953;48.810;9.204;2022-09-09T14:30:59;98351.03;;;26.01;35.33
13765;BME280;6953;48.810;9.204;2022-09-09T14:33:26;98347.47;;;26.09;35.60
13765;BME280;6953;48.810;9.204;2022-09-09T14:36:03;98257.84;;;25.94;34.74
13765;BME280;6953;48.810;9.204;2022-09-09T14:38:29;98336.56;;;26.60;34.03
13765;BME280;6953;48.810;9.204;2022-09-09T14:40:55;98308.19;;;26.43;34.10
13765;BME280;6953;48.810;9.204;2022-09-09T14:43:21;98334.63;;;26.54;34.63
13765;BME280;6953;48.810;9.204;2022-09-09T14:45:47;98289.66;;;26.19;34.60
13765;BME280;6953;48.810;9.204;2022-09-09T14:48:13;98284.28;;;26.05;34.95
13765;BME280;6953;48.810;9.204;2022-09-09T14:50:40;98352.81;;;26.52;35.13
13765;BME280;6953;48.810;9.204;2022-09-09T14:53:06;98338.25;;;26.82;34.03
13765;BME280;6953;48.810;9.204;2022-09-09T14:55:32;98344.63;;;27.16;34.09
13765;BME280;6953;48.810;9.204;2022-09-09T14:57:58;98344.78;;;27.29;33.85
13765;BME280;6953;48.810;9.204;2022-09-09T15:00:24;98342.97;;;27.36;33.64
13765;BME280;6953;48.810;9.204;2022-09-09T15:02:52;98224.31;;;26.60;33.66
13765;BME280;6953;48.810;9.204;2022-09-09T15:05:18;98343.28;;;27.27;33.34
13765;BME280;6953;48.810;9.204;2022-09-09T15:07:43;98342.09;;;27.08;33.82
13765;BME280;6953;48.810;9.204;2022-09-09T15:10:09;98362.25;;;26.98;34.28
13765;BME280;6953;48.810;9.204;2022-09-09T15:12:35;98363.69;;;26.79;34.31